sensor_id;sensor_type;location;lat;lon;timestamp;temperature;humidity
69204;DHT22;56317;27.658;85.326;2023-04-07T00:00:54;9.50;99.90
69204;DHT22;56317;27.658;85.326;2023-04-07T00:03:23;9.50;99.90
69204;DHT22;56317;27.658;85.326;2023-04-07T00:05:50;9.50;99.90
69204;DHT22;56317;27.658;85.326;2023-04-07T00:08:17;9.60;99.90
69204;DHT22;56317;27.658;85.326;2023-04-07T00:10:44;9.60;99.90
69204;DHT22;56317;27.658;85.326;2023-04-07T00:13:12;9.60;99.90
69204;DHT22;56317;27.658;85.326;2023-04-07T00:15:39;9.70;99.90
69204;DHT22;56317;27.658;85.326;2023-04-07T00:18:06;9.70;99.90
69204;DHT22;56317;27.658;85.326;2023-04-07T00:20:33;9.80;99.90
69204;DHT22;56317;27.658;85.326;2023-04-07T00:23:01;9.90;99.90
69204;DHT22;56317;27.658;85.326;2023-04-07T00:25:28;9.90;99.90
69204;DHT22;56317;27.658;85.326;2023-04-07T00:27:55;9.90;99.90
69204;DHT22;56317;27.658;85.326;2023-04-07T00:30:22;10.00;99.90
69204;DHT22;56317;27.658;85.326;2023-04-07T00:32:50;10.00;99.90
69204;DHT22;56317;27.658;85.326;2023-04-07T00:35:17;10.10;99.90
69204;DHT22;56317;27.658;85.326;2023-04-07T00:37:44;10.20;99.90
69204;DHT22;56317;27.658;85.326;2023-04-07T00:40:12;10.20;99.90
69204;DHT22;56317;27.658;85.326;2023-04-07T00:42:39;10.30;99.90
69204;DHT22;56317;27.658;85.326;2023-04-07T00:45:07;10.40;99.90
69204;DHT22;56317;27.658;85.326;2023-04-07T00:47:35;10.50;99.90
69204;DHT22;56317;27.658;85.326;2023-04-07T00:50:04;10.60;99.90
69204;DHT22;56317;27.658;85.326;2023-04-07T00:52:32;10.70;99.90
69204;DHT22;56317;27.658;85.326;2023-04-07T00:55:00;10.90;99.90
69204;DHT22;56317;27.658;85.326;2023-04-07T00:57:27;11.00;99.90
69204;DHT22;56317;27.658;85.326;2023-04-07T00:59:54;11.20;99.90
69204;DHT22;56317;27.658;85.326;2023-04-07T01:10:15;11.90;99.90
69204;DHT22;56317;27.658;85.326;2023-04-07T01:13:07;12.10;99.90
69204;DHT22;56317;27.658;85.326;2023-04-07T01:15:38;12.30;99.90
69204;DHT22;56317;27.658;85.326;2023-04-07T01:18:14;12.40;99.90
69204;DHT22;56317;27.658;85.326;2023-04-07T01:20:43;12.60;99.90
69204;DHT22;56317;27.658;85.326;2023-04-07T01:23:20;12.70;99.90
69204;DHT22;56317;27.658;85.326;2023-04-07T01:29:05;13.10;99.90
69204;DHT22;56317;27.658;85.326;2023-04-07T01:31:35;13.30;99.90
69204;DHT22;56317;27.658;85.326;2023-04-07T01:34:04;13.50;99.90
69204;DHT22;56317;27.658;85.326;2023-04-07T01:36:33;13.70;99.90
69204;DHT22;56317;27.658;85.326;2023-04-07T01:39:00;13.90;99.90
69204;DHT22;56317;27.658;85.326;2023-04-07T01:41:29;14.10;99.90
69204;DHT22;56317;27.658;85.326;2023-04-07T01:43:58;14.20;99.90
69204;DHT22;56317;27.658;85.326;2023-04-07T01:46:27;14.30;99.90
69204;DHT22;56317;27.658;85.326;2023-04-07T01:48:55;14.50;99.90
69204;DHT22;56317;27.658;85.326;2023-04-07T01:51:23;14.60;99.90
69204;DHT22;56317;27.658;85.326;2023-04-07T01:53:52;14.80;99.90
69204;DHT22;56317;27.658;85.326;2023-04-07T01:56:20;15.00;99.90
69204;DHT22;56317;27.658;85.326;2023-04-07T01:58:47;15.20;99.90
69204;DHT22;56317;27.658;85.326;2023-04-07T02:01:14;15.30;99.90
69204;DHT22;56317;27.658;85.326;2023-04-07T02:06:41;15.60;99.90
69204;DHT22;56317;27.658;85.326;2023-04-07T02:09:11;15.80;99.90
69204;DHT22;56317;27.658;85.326;2023-04-07T02:11:40;15.90;99.90
69204;DHT22;56317;27.658;85.326;2023-04-07T02:14:08;16.10;99.90
69204;DHT22;56317;27.658;85.326;2023-04-07T02:16:36;16.20;99.90
69204;DHT22;56317;27.658;85.326;2023-04-07T02:19:05;16.40;99.90
69204;DHT22;56317;27.658;85.326;2023-04-07T02:21:35;16.50;99.90
69204;DHT22;56317;27.658;85.326;2023-04-07T02:24:06;16.70;99.90
69204;DHT22;56317;27.658;85.326;2023-04-07T02:26:34;16.80;99.90
69204;DHT22;56317;27.658;85.326;2023-04-07T02:29:07;17.00;99.90
69204;DHT22;56317;27.658;85.326;2023-04-07T02:31:34;17.20;99.90
69204;DHT22;56317;27.658;85.326;2023-04-07T02:34:01;17.30;99.90
69204;DHT22;56317;27.658;85.326;2023-04-07T02:36:32;17.50;99.90
69204;DHT22;56317;27.658;85.326;2023-04-07T02:38:59;17.60;99.90
69204;DHT22;56317;27.658;85.326;2023-04-07T02:41:26;17.70;99.90
69204;DHT22;56317;27.658;85.326;2023-04-07T02:43:53;17.90;99.90
69204;DHT22;56317;27.658;85.326;2023-04-07T02:46:24;18.10;99.50
69204;DHT22;56317;27.658;85.326;2023-04-07T02:48:52;18.20;98.90
69204;DHT22;56317;27.658;85.326;2023-04-07T02:51:19;18.30;98.20
69204;DHT22;56317;27.658;85.326;2023-04-07T02:53:46;18.50;98.40
69204;DHT22;56317;27.658;85.326;2023-04-07T02:56:14;18.70;98.50
69204;DHT22;56317;27.658;85.326;2023-04-07T02:58:44;19.00;98.60
69204;DHT22;56317;27.658;85.326;2023-04-07T03:01:12;19.20;98.20
69204;DHT22;56317;27.658;85.326;2023-04-07T03:03:39;19.50;96.50
69204;DHT22;56317;27.658;85.326;2023-04-07T03:06:07;19.70;96.00
69204;DHT22;56317;27.658;85.326;2023-04-07T03:08:35;19.90;96.30
69204;DHT22;56317;27.658;85.326;2023-04-07T03:11:02;20.10;95.10
69204;DHT22;56317;27.658;85.326;2023-04-07T03:13:29;20.30;95.20
69204;DHT22;56317;27.658;85.326;2023-04-07T03:15:57;20.40;93.50
69204;DHT22;56317;27.658;85.326;2023-04-07T03:18:24;20.60;93.20
69204;DHT22;56317;27.658;85.326;2023-04-07T03:20:52;20.80;93.90
69204;DHT22;56317;27.658;85.326;2023-04-07T03:23:20;20.90;93.60
69204;DHT22;56317;27.658;85.326;2023-04-07T03:25:49;21.00;91.50
69204;DHT22;56317;27.658;85.326;2023-04-07T03:28:16;21.20;91.80
69204;DHT22;56317;27.658;85.326;2023-04-07T03:30:47;21.50;90.30
69204;DHT22;56317;27.658;85.326;2023-04-07T03:33:14;21.70;88.20
69204;DHT22;56317;27.658;85.326;2023-04-07T03:35:42;21.80;86.90
69204;DHT22;56317;27.658;85.326;2023-04-07T03:38:09;22.00;87.50
69204;DHT22;56317;27.658;85.326;2023-04-07T03:40:36;22.20;83.80
69204;DHT22;56317;27.658;85.326;2023-04-07T03:43:04;22.20;84.20
69204;DHT22;56317;27.658;85.326;2023-04-07T03:45:33;22.30;81.40
69204;DHT22;56317;27.658;85.326;2023-04-07T03:48:00;22.40;80.40
69204;DHT22;56317;27.658;85.326;2023-04-07T03:50:27;22.60;78.40
69204;DHT22;56317;27.658;85.326;2023-04-07T03:52:54;22.80;78.80
69204;DHT22;56317;27.658;85.326;2023-04-07T03:55:22;23.10;77.20
69204;DHT22;56317;27.658;85.326;2023-04-07T03:57:49;23.30;75.50
69204;DHT22;56317;27.658;85.326;2023-04-07T04:00:18;23.60;70.90
69204;DHT22;56317;27.658;85.326;2023-04-07T04:02:45;23.70;71.70
69204;DHT22;56317;27.658;85.326;2023-04-07T04:05:13;23.90;69.70
69204;DHT22;56317;27.658;85.326;2023-04-07T04:07:40;24.10;68.10
69204;DHT22;56317;27.658;85.326;2023-04-07T04:10:07;24.20;66.10
69204;DHT22;56317;27.658;85.326;2023-04-07T04:12:35;24.30;66.10
69204;DHT22;56317;27.658;85.326;2023-04-07T04:15:02;24.40;66.70
69204;DHT22;56317;27.658;85.326;2023-04-07T04:17:29;24.60;66.70
69204;DHT22;56317;27.658;85.326;2023-04-07T04:19:57;24.90;67.90
69204;DHT22;56317;27.658;85.326;2023-04-07T04:22:24;25.10;65.80
69204;DHT22;56317;27.658;85.326;2023-04-07T04:24:51;25.40;64.50
69204;DHT22;56317;27.658;85.326;2023-04-07T04:27:18;25.80;65.70
69204;DHT22;56317;27.658;85.326;2023-04-07T04:29:46;25.90;60.70
69204;DHT22;56317;27.658;85.326;2023-04-07T04:32:14;26.00;60.50
69204;DHT22;56317;27.658;85.326;2023-04-07T04:34:43;26.10;59.60
69204;DHT22;56317;27.658;85.326;2023-04-07T04:37:11;26.20;59.30
69204;DHT22;56317;27.658;85.326;2023-04-07T04:39:38;26.50;63.10
69204;DHT22;56317;27.658;85.326;2023-04-07T04:42:05;26.70;61.60
69204;DHT22;56317;27.658;85.326;2023-04-07T04:44:33;27.00;59.80
69204;DHT22;56317;27.658;85.326;2023-04-07T04:47:03;27.10;58.70
69204;DHT22;56317;27.658;85.326;2023-04-07T04:49:30;27.30;58.00
69204;DHT22;56317;27.658;85.326;2023-04-07T04:51:57;27.40;56.00
69204;DHT22;56317;27.658;85.326;2023-04-07T04:54:24;27.60;55.80
69204;DHT22;56317;27.658;85.326;2023-04-07T04:56:52;27.90;54.10
69204;DHT22;56317;27.658;85.326;2023-04-07T04:59:19;28.20;54.30
69204;DHT22;56317;27.658;85.326;2023-04-07T05:01:49;28.50;55.00
69204;DHT22;56317;27.658;85.326;2023-04-07T05:04:16;28.60;52.50
69204;DHT22;56317;27.658;85.326;2023-04-07T05:06:44;28.60;51.70
69204;DHT22;56317;27.658;85.326;2023-04-07T05:09:11;28.80;52.00
69204;DHT22;56317;27.658;85.326;2023-04-07T05:11:41;29.00;48.70
69204;DHT22;56317;27.658;85.326;2023-04-07T05:14:09;29.10;48.20
69204;DHT22;56317;27.658;85.326;2023-04-07T05:16:36;29.20;46.80
69204;DHT22;56317;27.658;85.326;2023-04-07T05:19:06;29.00;47.40
69204;DHT22;56317;27.658;85.326;2023-04-07T05:21:34;29.20;45.10
69204;DHT22;56317;27.658;85.326;2023-04-07T05:24:01;29.30;47.00
69204;DHT22;56317;27.658;85.326;2023-04-07T05:26:28;29.60;47.00
69204;DHT22;56317;27.658;85.326;2023-04-07T05:28:56;29.90;46.60
69204;DHT22;56317;27.658;85.326;2023-04-07T05:31:23;30.20;47.20
69204;DHT22;56317;27.658;85.326;2023-04-07T05:33:51;30.30;47.00
69204;DHT22;56317;27.658;85.326;2023-04-07T05:36:18;30.60;45.80
69204;DHT22;56317;27.658;85.326;2023-04-07T05:38:46;30.70;46.00
69204;DHT22;56317;27.658;85.326;2023-04-07T05:41:13;30.70;44.30
69204;DHT22;56317;27.658;85.326;2023-04-07T05:43:41;30.90;47.30
69204;DHT22;56317;27.658;85.326;2023-04-07T05:46:08;31.20;45.60
69204;DHT22;56317;27.658;85.326;2023-04-07T05:48:35;31.40;45.50
69204;DHT22;56317;27.658;85.326;2023-04-07T05:51:03;31.60;47.40
69204;DHT22;56317;27.658;85.326;2023-04-07T05:53:30;32.00;46.00
69204;DHT22;56317;27.658;85.326;2023-04-07T05:55:57;32.30;45.10
69204;DHT22;56317;27.658;85.326;2023-04-07T05:58:24;33.30;42.60
69204;DHT22;56317;27.658;85.326;2023-04-07T06:00:52;35.30;41.10
69204;DHT22;56317;27.658;85.326;2023-04-07T06:03:19;37.10;41.70
69204;DHT22;56317;27.658;85.326;2023-04-07T06:05:46;39.00;41.40
69204;DHT22;56317;27.658;85.326;2023-04-07T06:08:13;40.50;38.20
69204;DHT22;56317;27.658;85.326;2023-04-07T06:10:41;41.80;38.10
69204;DHT22;56317;27.658;85.326;2023-04-07T06:13:09;42.90;35.90
69204;DHT22;56317;27.658;85.326;2023-04-07T06:15:36;43.80;34.40
69204;DHT22;56317;27.658;85.326;2023-04-07T06:18:03;44.60;34.60
69204;DHT22;56317;27.658;85.326;2023-04-07T06:20:31;45.50;34.70
69204;DHT22;56317;27.658;85.326;2023-04-07T06:22:58;45.40;32.30
69204;DHT22;56317;27.658;85.326;2023-04-07T06:25:25;45.30;31.50
69204;DHT22;56317;27.658;85.326;2023-04-07T06:27:53;44.90;33.20
69204;DHT22;56317;27.658;85.326;2023-04-07T06:30:21;45.30;32.40
69204;DHT22;56317;27.658;85.326;2023-04-07T06:32:48;46.20;31.60
69204;DHT22;56317;27.658;85.326;2023-04-07T06:35:16;46.60;31.90
69204;DHT22;56317;27.658;85.326;2023-04-07T06:37:43;46.70;31.50
69204;DHT22;56317;27.658;85.326;2023-04-07T06:40:10;46.60;30.70
69204;DHT22;56317;27.658;85.326;2023-04-07T06:42:38;46.00;31.10
69204;DHT22;56317;27.658;85.326;2023-04-07T06:45:05;45.50;31.50
69204;DHT22;56317;27.658;85.326;2023-04-07T06:47:33;45.90;30.90
69204;DHT22;56317;27.658;85.326;2023-04-07T06:50:00;45.90;30.60
69204;DHT22;56317;27.658;85.326;2023-04-07T06:52:27;46.50;31.80
69204;DHT22;56317;27.658;85.326;2023-04-07T06:54:54;47.10;30.60
69204;DHT22;56317;27.658;85.326;2023-04-07T06:57:22;46.60;30.40
69204;DHT22;56317;27.658;85.326;2023-04-07T06:59:49;46.70;30.50
69204;DHT22;56317;27.658;85.326;2023-04-07T07:02:16;46.40;30.30
69204;DHT22;56317;27.658;85.326;2023-04-07T07:04:43;46.30;30.70
69204;DHT22;56317;27.658;85.326;2023-04-07T07:07:11;46.60;30.50
69204;DHT22;56317;27.658;85.326;2023-04-07T07:09:38;46.60;31.60
69204;DHT22;56317;27.658;85.326;2023-04-07T07:12:05;47.20;30.50
69204;DHT22;56317;27.658;85.326;2023-04-07T07:14:37;47.50;30.60
69204;DHT22;56317;27.658;85.326;2023-04-07T07:17:08;48.10;30.50
69204;DHT22;56317;27.658;85.326;2023-04-07T07:19:35;48.60;30.30
69204;DHT22;56317;27.658;85.326;2023-04-07T07:22:02;49.40;30.20
69204;DHT22;56317;27.658;85.326;2023-04-07T07:24:30;49.50;30.00
69204;DHT22;56317;27.658;85.326;2023-04-07T07:27:02;49.90;30.30
69204;DHT22;56317;27.658;85.326;2023-04-07T07:29:29;50.20;28.90
69204;DHT22;56317;27.658;85.326;2023-04-07T07:31:57;49.80;29.10
69204;DHT22;56317;27.658;85.326;2023-04-07T07:34:28;49.40;29.20
69204;DHT22;56317;27.658;85.326;2023-04-07T07:36:55;48.90;29.00
69204;DHT22;56317;27.658;85.326;2023-04-07T07:39:22;47.60;30.00
69204;DHT22;56317;27.658;85.326;2023-04-07T07:41:50;47.30;29.40
69204;DHT22;56317;27.658;85.326;2023-04-07T07:44:17;47.80;29.50
69204;DHT22;56317;27.658;85.326;2023-04-07T07:46:49;47.70;29.50
69204;DHT22;56317;27.658;85.326;2023-04-07T07:49:17;47.90;29.70
69204;DHT22;56317;27.658;85.326;2023-04-07T07:51:44;48.50;29.90
69204;DHT22;56317;27.658;85.326;2023-04-07T07:54:12;49.20;30.40
69204;DHT22;56317;27.658;85.326;2023-04-07T07:56:39;48.80;30.00
69204;DHT22;56317;27.658;85.326;2023-04-07T07:59:07;48.80;31.00
69204;DHT22;56317;27.658;85.326;2023-04-07T08:01:34;48.00;31.00
69204;DHT22;56317;27.658;85.326;2023-04-07T08:04:01;46.80;31.50
69204;DHT22;56317;27.658;85.326;2023-04-07T08:06:28;46.30;32.00
69204;DHT22;56317;27.658;85.326;2023-04-07T08:08:57;45.70;32.40
69204;DHT22;56317;27.658;85.326;2023-04-07T08:11:24;45.50;32.30
69204;DHT22;56317;27.658;85.326;2023-04-07T08:13:51;44.60;32.40
69204;DHT22;56317;27.658;85.326;2023-04-07T08:16:19;44.20;33.20
69204;DHT22;56317;27.658;85.326;2023-04-07T08:18:48;44.40;33.10
69204;DHT22;56317;27.658;85.326;2023-04-07T08:21:15;44.30;33.30
69204;DHT22;56317;27.658;85.326;2023-04-07T08:23:42;44.10;33.00
69204;DHT22;56317;27.658;85.326;2023-04-07T08:26:09;44.20;33.30
69204;DHT22;56317;27.658;85.326;2023-04-07T08:28:37;43.40;33.80
69204;DHT22;56317;27.658;85.326;2023-04-07T08:31:05;43.70;33.60
69204;DHT22;56317;27.658;85.326;2023-04-07T08:33:32;43.80;33.20
69204;DHT22;56317;27.658;85.326;2023-04-07T08:35:59;43.10;33.70
69204;DHT22;56317;27.658;85.326;2023-04-07T08:38:27;42.90;33.80
69204;DHT22;56317;27.658;85.326;2023-04-07T08:41:20;43.20;33.70
69204;DHT22;56317;27.658;85.326;2023-04-07T08:43:49;42.70;33.80
69204;DHT22;56317;27.658;85.326;2023-04-07T08:46:20;42.40;34.00
69204;DHT22;56317;27.658;85.326;2023-04-07T08:48:51;42.40;34.70
69204;DHT22;56317;27.658;85.326;2023-04-07T08:51:42;42.50;34.30
69204;DHT22;56317;27.658;85.326;2023-04-07T08:54:13;42.50;34.10
69204;DHT22;56317;27.658;85.326;2023-04-07T08:56:48;42.40;34.00
69204;DHT22;56317;27.658;85.326;2023-04-07T08:59:16;42.40;33.80
69204;DHT22;56317;27.658;85.326;2023-04-07T09:01:45;41.60;34.10
69204;DHT22;56317;27.658;85.326;2023-04-07T09:04:12;41.30;34.80
69204;DHT22;56317;27.658;85.326;2023-04-07T09:06:40;41.70;34.60
69204;DHT22;56317;27.658;85.326;2023-04-07T09:09:07;41.70;34.30
69204;DHT22;56317;27.658;85.326;2023-04-07T09:11:40;41.90;34.60
69204;DHT22;56317;27.658;85.326;2023-04-07T09:14:10;42.30;35.00
69204;DHT22;56317;27.658;85.326;2023-04-07T09:16:37;42.60;34.30
69204;DHT22;56317;27.658;85.326;2023-04-07T09:19:05;42.10;34.70
69204;DHT22;56317;27.658;85.326;2023-04-07T09:21:52;42.00;34.80
69204;DHT22;56317;27.658;85.326;2023-04-07T09:24:24;42.10;34.90
69204;DHT22;56317;27.658;85.326;2023-04-07T09:27:17;41.90;35.10
69204;DHT22;56317;27.658;85.326;2023-04-07T09:29:49;41.20;35.60
69204;DHT22;56317;27.658;85.326;2023-04-07T09:32:36;41.10;35.90
69204;DHT22;56317;27.658;85.326;2023-04-07T09:35:04;40.80;36.40
69204;DHT22;56317;27.658;85.326;2023-04-07T09:37:31;40.60;36.70
69204;DHT22;56317;27.658;85.326;2023-04-07T09:39:58;40.20;37.10
69204;DHT22;56317;27.658;85.326;2023-04-07T09:42:27;40.30;37.70
69204;DHT22;56317;27.658;85.326;2023-04-07T09:44:59;40.60;38.20
69204;DHT22;56317;27.658;85.326;2023-04-07T09:47:31;40.90;37.50
69204;DHT22;56317;27.658;85.326;2023-04-07T09:49:58;40.50;37.60
69204;DHT22;56317;27.658;85.326;2023-04-07T09:53:01;39.70;38.10
69204;DHT22;56317;27.658;85.326;2023-04-07T09:55:30;38.80;39.20
69204;DHT22;56317;27.658;85.326;2023-04-07T09:57:57;38.40;39.40
69204;DHT22;56317;27.658;85.326;2023-04-07T10:00:25;38.40;39.40
69204;DHT22;56317;27.658;85.326;2023-04-07T10:02:53;38.20;39.80
69204;DHT22;56317;27.658;85.326;2023-04-07T10:05:21;38.10;40.00
69204;DHT22;56317;27.658;85.326;2023-04-07T10:07:49;38.20;39.70
69204;DHT22;56317;27.658;85.326;2023-04-07T10:10:16;38.20;39.80
69204;DHT22;56317;27.658;85.326;2023-04-07T10:12:48;38.50;40.10
69204;DHT22;56317;27.658;85.326;2023-04-07T10:15:15;38.70;39.60
69204;DHT22;56317;27.658;85.326;2023-04-07T10:17:47;38.00;39.70
69204;DHT22;56317;27.658;85.326;2023-04-07T10:20:17;37.50;40.50
69204;DHT22;56317;27.658;85.326;2023-04-07T10:22:48;36.80;40.90
69204;DHT22;56317;27.658;85.326;2023-04-07T10:25:21;35.60;41.30
69204;DHT22;56317;27.658;85.326;2023-04-07T10:30:33;35.50;42.40
69204;DHT22;56317;27.658;85.326;2023-04-07T10:33:01;35.30;42.50
69204;DHT22;56317;27.658;85.326;2023-04-07T10:36:04;34.90;42.20
69204;DHT22;56317;27.658;85.326;2023-04-07T10:38:32;34.10;42.90
69204;DHT22;56317;27.658;85.326;2023-04-07T10:40:59;32.00;44.60
69204;DHT22;56317;27.658;85.326;2023-04-07T10:43:47;30.50;46.80
69204;DHT22;56317;27.658;85.326;2023-04-07T10:49:09;28.10;50.60
69204;DHT22;56317;27.658;85.326;2023-04-07T10:51:37;27.50;51.80
69204;DHT22;56317;27.658;85.326;2023-04-07T10:54:20;27.70;52.40
69204;DHT22;56317;27.658;85.326;2023-04-07T10:57:07;27.90;51.90
69204;DHT22;56317;27.658;85.326;2023-04-07T11:00:13;28.40;51.10
69204;DHT22;56317;27.658;85.326;2023-04-07T11:04:51;28.10;52.20
69204;DHT22;56317;27.658;85.326;2023-04-07T11:07:19;28.70;51.40
69204;DHT22;56317;27.658;85.326;2023-04-07T11:10:14;29.20;51.00
69204;DHT22;56317;27.658;85.326;2023-04-07T11:12:42;28.50;50.10
69204;DHT22;56317;27.658;85.326;2023-04-07T11:15:22;27.70;51.60
69204;DHT22;56317;27.658;85.326;2023-04-07T11:18:18;28.00;51.80
69204;DHT22;56317;27.658;85.326;2023-04-07T11:23:16;28.50;51.10
69204;DHT22;56317;27.658;85.326;2023-04-07T11:25:46;28.50;50.90
69204;DHT22;56317;27.658;85.326;2023-04-07T11:28:13;28.80;50.90
69204;DHT22;56317;27.658;85.326;2023-04-07T11:30:49;28.90;50.50
69204;DHT22;56317;27.658;85.326;2023-04-07T11:33:25;28.80;50.80
69204;DHT22;56317;27.658;85.326;2023-04-07T11:35:54;27.80;50.70
69204;DHT22;56317;27.658;85.326;2023-04-07T11:38:24;26.90;52.20
69204;DHT22;56317;27.658;85.326;2023-04-07T11:40:53;26.10;53.60
69204;DHT22;56317;27.658;85.326;2023-04-07T11:43:23;25.50;55.20
69204;DHT22;56317;27.658;85.326;2023-04-07T11:46:07;25.00;55.90
69204;DHT22;56317;27.658;85.326;2023-04-07T11:48:36;24.70;57.10
69204;DHT22;56317;27.658;85.326;2023-04-07T11:51:04;24.40;57.90
69204;DHT22;56317;27.658;85.326;2023-04-07T11:53:34;24.10;58.00
69204;DHT22;56317;27.658;85.326;2023-04-07T11:56:08;23.80;58.40
69204;DHT22;56317;27.658;85.326;2023-04-07T11:58:37;23.60;59.30
69204;DHT22;56317;27.658;85.326;2023-04-07T12:01:05;23.40;59.60
69204;DHT22;56317;27.658;85.326;2023-04-07T12:03:35;23.20;59.60
69204;DHT22;56317;27.658;85.326;2023-04-07T12:06:03;23.00;60.00
69204;DHT22;56317;27.658;85.326;2023-04-07T12:08:41;22.90;60.70
69204;DHT22;56317;27.658;85.326;2023-04-07T12:11:10;22.70;60.80
69204;DHT22;56317;27.658;85.326;2023-04-07T12:13:37;22.50;61.60
69204;DHT22;56317;27.658;85.326;2023-04-07T12:16:05;22.40;61.80
69204;DHT22;56317;27.658;85.326;2023-04-07T12:18:32;22.20;62.20
69204;DHT22;56317;27.658;85.326;2023-04-07T12:20:59;22.10;62.70
69204;DHT22;56317;27.658;85.326;2023-04-07T12:23:27;21.90;62.80
69204;DHT22;56317;27.658;85.326;2023-04-07T12:25:54;21.80;63.30
69204;DHT22;56317;27.658;85.326;2023-04-07T12:28:22;21.70;64.10
69204;DHT22;56317;27.658;85.326;2023-04-07T12:30:49;21.60;64.80
69204;DHT22;56317;27.658;85.326;2023-04-07T12:33:16;21.50;65.40
69204;DHT22;56317;27.658;85.326;2023-04-07T12:35:43;21.40;65.40
69204;DHT22;56317;27.658;85.326;2023-04-07T12:38:11;21.40;65.30
69204;DHT22;56317;27.658;85.326;2023-04-07T12:40:38;21.20;65.80
69204;DHT22;56317;27.658;85.326;2023-04-07T12:43:05;21.20;66.20
69204;DHT22;56317;27.658;85.326;2023-04-07T12:45:33;21.10;66.40
69204;DHT22;56317;27.658;85.326;2023-04-07T12:48:00;21.00;66.70
69204;DHT22;56317;27.658;85.326;2023-04-07T12:50:28;21.00;66.70
69204;DHT22;56317;27.658;85.326;2023-04-07T12:52:56;20.90;67.10
69204;DHT22;56317;27.658;85.326;2023-04-07T12:55:25;20.80;67.40
69204;DHT22;56317;27.658;85.326;2023-04-07T12:57:52;20.70;67.80
69204;DHT22;56317;27.658;85.326;2023-04-07T13:00:21;20.60;68.10
69204;DHT22;56317;27.658;85.326;2023-04-07T13:02:48;20.60;68.30
69204;DHT22;56317;27.658;85.326;2023-04-07T13:05:16;20.50;68.60
69204;DHT22;56317;27.658;85.326;2023-04-07T13:07:44;20.40;69.60
69204;DHT22;56317;27.658;85.326;2023-04-07T13:10:12;20.40;69.70
69204;DHT22;56317;27.658;85.326;2023-04-07T13:12:39;20.40;70.10
69204;DHT22;56317;27.658;85.326;2023-04-07T13:15:07;20.30;70.10
69204;DHT22;56317;27.658;85.326;2023-04-07T13:17:35;20.20;70.10
69204;DHT22;56317;27.658;85.326;2023-04-07T13:20:04;20.20;70.20
69204;DHT22;56317;27.658;85.326;2023-04-07T13:22:32;20.00;70.70
69204;DHT22;56317;27.658;85.326;2023-04-07T13:24:59;20.00;71.60
69204;DHT22;56317;27.658;85.326;2023-04-07T13:27:26;20.00;71.60
69204;DHT22;56317;27.658;85.326;2023-04-07T13:29:54;20.00;72.10
69204;DHT22;56317;27.658;85.326;2023-04-07T13:32:21;19.90;71.70
69204;DHT22;56317;27.658;85.326;2023-04-07T13:34:48;19.90;71.80
69204;DHT22;56317;27.658;85.326;2023-04-07T13:37:16;19.80;71.80
69204;DHT22;56317;27.658;85.326;2023-04-07T13:39:45;19.70;72.70
69204;DHT22;56317;27.658;85.326;2023-04-07T13:42:13;19.60;73.30
69204;DHT22;56317;27.658;85.326;2023-04-07T13:44:44;19.60;73.40
69204;DHT22;56317;27.658;85.326;2023-04-07T13:47:13;19.50;73.70
69204;DHT22;56317;27.658;85.326;2023-04-07T13:49:48;19.40;74.40
69204;DHT22;56317;27.658;85.326;2023-04-07T13:52:17;19.40;74.60
69204;DHT22;56317;27.658;85.326;2023-04-07T13:54:44;19.40;75.00
69204;DHT22;56317;27.658;85.326;2023-04-07T13:57:12;19.30;75.30
69204;DHT22;56317;27.658;85.326;2023-04-07T13:59:47;19.30;74.90
69204;DHT22;56317;27.658;85.326;2023-04-07T14:02:14;19.20;75.30
69204;DHT22;56317;27.658;85.326;2023-04-07T14:04:42;19.20;75.10
69204;DHT22;56317;27.658;85.326;2023-04-07T14:07:09;19.10;75.10
69204;DHT22;56317;27.658;85.326;2023-04-07T14:09:37;19.10;75.50
69204;DHT22;56317;27.658;85.326;2023-04-07T14:12:05;19.00;75.80
69204;DHT22;56317;27.658;85.326;2023-04-07T14:14:32;18.90;76.10
69204;DHT22;56317;27.658;85.326;2023-04-07T14:17:02;18.80;76.60
69204;DHT22;56317;27.658;85.326;2023-04-07T14:19:30;18.80;76.60
69204;DHT22;56317;27.658;85.326;2023-04-07T14:21:59;18.70;77.00
69204;DHT22;56317;27.658;85.326;2023-04-07T14:24:26;18.70;77.00
69204;DHT22;56317;27.658;85.326;2023-04-07T14:26:53;18.60;77.20
69204;DHT22;56317;27.658;85.326;2023-04-07T14:29:20;18.50;77.60
69204;DHT22;56317;27.658;85.326;2023-04-07T14:31:48;18.40;77.90
69204;DHT22;56317;27.658;85.326;2023-04-07T14:34:16;18.30;78.50
69204;DHT22;56317;27.658;85.326;2023-04-07T14:36:53;18.30;79.40
69204;DHT22;56317;27.658;85.326;2023-04-07T14:39:21;18.20;79.90
69204;DHT22;56317;27.658;85.326;2023-04-07T14:41:50;18.20;80.50
69204;DHT22;56317;27.658;85.326;2023-04-07T14:44:17;18.10;81.60
69204;DHT22;56317;27.658;85.326;2023-04-07T14:46:44;18.10;81.70
69204;DHT22;56317;27.658;85.326;2023-04-07T14:49:13;18.00;82.90
69204;DHT22;56317;27.658;85.326;2023-04-07T14:51:41;17.90;83.90
69204;DHT22;56317;27.658;85.326;2023-04-07T14:54:08;17.90;85.60
69204;DHT22;56317;27.658;85.326;2023-04-07T14:56:38;18.00;86.40
69204;DHT22;56317;27.658;85.326;2023-04-07T14:59:06;18.00;87.40
69204;DHT22;56317;27.658;85.326;2023-04-07T15:01:34;17.90;88.20
69204;DHT22;56317;27.658;85.326;2023-04-07T15:04:01;17.80;89.10
69204;DHT22;56317;27.658;85.326;2023-04-07T15:06:28;17.70;90.00
69204;DHT22;56317;27.658;85.326;2023-04-07T15:08:57;17.70;90.70
69204;DHT22;56317;27.658;85.326;2023-04-07T15:11:24;17.50;91.50
69204;DHT22;56317;27.658;85.326;2023-04-07T15:13:51;17.50;92.10
69204;DHT22;56317;27.658;85.326;2023-04-07T15:16:19;17.40;92.90
69204;DHT22;56317;27.658;85.326;2023-04-07T15:18:48;17.40;93.80
69204;DHT22;56317;27.658;85.326;2023-04-07T15:21:16;17.30;94.90
69204;DHT22;56317;27.658;85.326;2023-04-07T15:23:45;17.30;95.70
69204;DHT22;56317;27.658;85.326;2023-04-07T15:26:12;17.30;96.10
69204;DHT22;56317;27.658;85.326;2023-04-07T15:28:39;17.20;96.60
69204;DHT22;56317;27.658;85.326;2023-04-07T15:31:07;17.10;97.20
69204;DHT22;56317;27.658;85.326;2023-04-07T15:33:35;17.00;97.80
69204;DHT22;56317;27.658;85.326;2023-04-07T15:36:04;17.00;98.50
69204;DHT22;56317;27.658;85.326;2023-04-07T15:38:32;16.90;99.30
69204;DHT22;56317;27.658;85.326;2023-04-07T15:40:59;17.00;99.90
69204;DHT22;56317;27.658;85.326;2023-04-07T15:43:26;17.00;99.90
69204;DHT22;56317;27.658;85.326;2023-04-07T15:45:54;17.00;99.90
69204;DHT22;56317;27.658;85.326;2023-04-07T15:48:22;17.00;99.90
69204;DHT22;56317;27.658;85.326;2023-04-07T15:50:49;17.00;99.90
69204;DHT22;56317;27.658;85.326;2023-04-07T15:53:17;16.90;99.90